createdAt,value
2019-01-04T00:00:19.126Z,18.13
2019-01-04T00:02:45.163Z,16.33
2019-01-04T00:05:11.141Z,17.05
2019-01-04T00:07:37.118Z,17.07
2019-01-04T00:10:03.093Z,16.10
2019-01-04T00:12:29.031Z,15.50
2019-01-04T00:14:55.034Z,16.23
2019-01-04T00:17:21.137Z,13.15
2019-01-04T00:19:47.108Z,13.00
2019-01-04T00:22:13.069Z,12.70
2019-01-04T00:24:39.092Z,13.60
2019-01-04T00:27:05.077Z,13.83
2019-01-04T00:29:31.053Z,14.17
2019-01-04T00:31:57.053Z,14.20
2019-01-04T00:34:23.772Z,13.30
2019-01-04T00:36:49.750Z,15.45
2019-01-04T00:39:15.744Z,14.30
2019-01-04T00:41:41.702Z,14.52
2019-01-04T00:44:07.644Z,14.57
2019-01-04T00:46:33.647Z,13.37
2019-01-04T00:48:59.601Z,13.75
2019-01-04T00:51:25.587Z,13.07
2019-01-04T00:53:51.607Z,13.07
2019-01-04T00:56:19.419Z,15.88
2019-01-04T00:58:47.167Z,13.45
2019-01-04T01:01:25.561Z,13.35
2019-01-04T01:04:11.376Z,13.43
2019-01-04T01:06:39.344Z,13.80
2019-01-04T01:09:19.034Z,14.15
2019-01-04T01:11:51.929Z,14.05
2019-01-04T01:14:32.861Z,15.43
2019-01-04T01:17:04.564Z,14.10
2019-01-04T01:19:47.417Z,14.48
2019-01-04T01:22:18.150Z,12.80
2019-01-04T01:24:49.002Z,13.68
2019-01-04T01:27:25.840Z,12.60
2019-01-04T01:30:06.803Z,13.62
2019-01-04T01:32:35.803Z,13.00
2019-01-04T01:35:19.698Z,12.68
2019-01-04T01:38:05.604Z,12.68
2019-01-04T01:40:36.477Z,13.07
2019-01-04T01:43:06.393Z,14.30
2019-01-04T01:45:52.002Z,14.40
2019-01-04T01:48:18.000Z,15.45
2019-01-04T01:51:17.849Z,17.48
2019-01-04T01:53:43.839Z,14.57
2019-01-04T01:56:09.860Z,16.20
2019-01-04T01:58:35.835Z,17.23
2019-01-04T02:01:01.790Z,15.70
2019-01-04T02:03:27.781Z,16.47
2019-01-04T02:05:53.748Z,17.70
2019-01-04T02:08:19.728Z,18.40
2019-01-04T02:10:45.716Z,19.13
2019-01-04T02:13:12.441Z,19.63
2019-01-04T02:15:39.160Z,17.00
2019-01-04T02:18:05.145Z,19.42
2019-01-04T02:20:31.169Z,19.53
2019-01-04T02:22:57.138Z,19.30
2019-01-04T02:25:23.100Z,19.27
2019-01-04T02:27:49.084Z,19.43
2019-01-04T02:30:15.071Z,17.93
2019-01-04T02:32:41.005Z,15.47
2019-01-04T02:35:06.977Z,14.23
2019-01-04T02:37:32.933Z,14.43
2019-01-04T02:39:58.929Z,16.47
2019-01-04T02:42:24.908Z,15.18
2019-01-04T02:44:50.870Z,15.13
2019-01-04T02:47:17.588Z,15.40
2019-01-04T02:49:43.648Z,15.82
2019-01-04T02:52:09.620Z,17.70
2019-01-04T02:54:35.596Z,17.83
2019-01-04T02:57:01.557Z,16.40
2019-01-04T02:59:27.548Z,17.60
2019-01-04T03:01:53.584Z,20.05
2019-01-04T03:04:19.545Z,19.77
2019-01-04T03:06:45.507Z,16.73
2019-01-04T03:09:11.589Z,18.87
2019-01-04T03:11:37.567Z,19.20
2019-01-04T03:14:03.544Z,15.90
2019-01-04T03:16:29.571Z,18.13
2019-01-04T03:18:55.559Z,18.95
2019-01-04T03:21:21.532Z,19.70
2019-01-04T03:23:47.539Z,20.27
2019-01-04T03:26:13.509Z,19.30
2019-01-04T03:28:39.446Z,20.80
2019-01-04T03:31:05.421Z,20.57
2019-01-04T03:33:31.382Z,21.03
2019-01-04T03:35:57.354Z,21.53
2019-01-04T03:38:23.324Z,21.37
2019-01-04T03:40:49.291Z,18.43
2019-01-04T03:43:15.255Z,19.23
2019-01-04T03:45:41.236Z,19.77
2019-01-04T03:48:07.211Z,23.05
2019-01-04T03:50:33.185Z,21.17
2019-01-04T03:52:59.200Z,20.40
2019-01-04T03:55:25.246Z,21.10
2019-01-04T03:57:51.235Z,20.33
2019-01-04T04:00:17.224Z,19.30
2019-01-04T04:02:43.226Z,20.40
2019-01-04T04:05:09.234Z,21.02
2019-01-04T04:07:35.211Z,20.75
2019-01-04T04:10:01.185Z,19.07
2019-01-04T04:12:27.205Z,20.33
2019-01-04T04:14:53.168Z,19.95
2019-01-04T04:17:19.148Z,17.77
2019-01-04T04:19:45.110Z,17.50
2019-01-04T04:22:11.088Z,16.57
2019-01-04T04:24:37.087Z,17.23
2019-01-04T04:27:03.087Z,17.90
2019-01-04T04:29:29.085Z,17.80
2019-01-04T04:31:55.080Z,16.80
2019-01-04T04:34:21.061Z,17.60
2019-01-04T04:36:47.050Z,17.97
2019-01-04T04:39:13.005Z,17.17
2019-01-04T04:41:39.030Z,17.53
2019-01-04T04:44:05.040Z,19.25
2019-01-04T04:46:31.039Z,19.00
2019-01-04T04:48:57.054Z,18.85
2019-01-04T04:51:23.009Z,17.12
2019-01-04T04:53:49.002Z,19.10
2019-01-04T04:56:14.974Z,18.87
2019-01-04T04:58:40.956Z,19.43
2019-01-04T05:01:07.701Z,21.07
2019-01-04T05:03:34.452Z,17.83
2019-01-04T05:06:01.213Z,16.75
2019-01-04T05:08:27.238Z,17.75
2019-01-04T05:10:53.236Z,17.05
2019-01-04T05:13:19.237Z,17.63
2019-01-04T05:15:45.998Z,18.62
2019-01-04T05:18:11.997Z,17.80
2019-01-04T05:20:37.982Z,18.17
2019-01-04T05:23:03.981Z,16.97
2019-01-04T05:25:30.022Z,19.67
2019-01-04T05:27:56.023Z,23.55
2019-01-04T05:30:22.037Z,20.80
2019-01-04T05:32:48.098Z,19.20
2019-01-04T05:35:14.100Z,18.55
2019-01-04T05:37:40.106Z,18.63
2019-01-04T05:40:06.081Z,17.92
2019-01-04T05:42:32.074Z,17.20
2019-01-04T05:44:58.058Z,18.30
2019-01-04T05:47:24.790Z,18.60
2019-01-04T05:49:50.783Z,18.45
2019-01-04T05:52:16.781Z,16.97
2019-01-04T05:54:42.783Z,17.17
2019-01-04T05:57:08.823Z,19.55
2019-01-04T05:59:34.820Z,17.40
2019-01-04T06:02:00.814Z,18.25
2019-01-04T06:04:26.785Z,16.40
2019-01-04T06:06:52.835Z,18.17
2019-01-04T06:09:18.845Z,18.05
2019-01-04T06:11:44.826Z,18.00
2019-01-04T06:14:10.827Z,19.63
2019-01-04T06:16:36.821Z,16.20
2019-01-04T06:19:02.801Z,17.87
2019-01-04T06:21:28.781Z,15.87
2019-01-04T06:23:54.749Z,18.03
2019-01-04T06:26:20.706Z,18.43
2019-01-04T06:28:46.703Z,16.47
2019-01-04T06:31:12.670Z,16.35
2019-01-04T06:33:38.665Z,14.80
2019-01-04T06:36:04.617Z,18.47
2019-01-04T06:38:30.585Z,15.73
2019-01-04T06:40:56.585Z,17.70
2019-01-04T06:43:22.576Z,17.87
2019-01-04T06:45:48.565Z,17.87
2019-01-04T06:48:14.550Z,17.70
2019-01-04T06:50:41.309Z,17.67
2019-01-04T06:53:07.328Z,17.37
2019-01-04T06:55:40.470Z,16.85
2019-01-04T06:58:06.453Z,16.20
2019-01-04T07:00:32.457Z,18.13
2019-01-04T07:02:58.447Z,20.88
2019-01-04T07:05:24.420Z,18.10
2019-01-04T07:07:50.409Z,24.87
2019-01-04T07:10:17.122Z,23.23
2019-01-04T07:12:43.130Z,22.48
2019-01-04T07:15:09.136Z,21.77
2019-01-04T07:17:35.149Z,18.05
2019-01-04T07:20:01.110Z,18.27
2019-01-04T07:22:27.088Z,18.03
2019-01-04T07:24:53.070Z,16.90
2019-01-04T07:27:19.045Z,18.00
2019-01-04T07:29:45.055Z,18.40
2019-01-04T07:32:11.022Z,17.73
2019-01-04T07:34:36.976Z,18.10
2019-01-04T07:37:03.728Z,18.53
2019-01-04T07:39:29.685Z,17.75
2019-01-04T07:41:55.663Z,17.33
2019-01-04T07:44:21.678Z,20.80
2019-01-04T07:46:47.673Z,28.17
2019-01-04T07:49:13.666Z,26.20
2019-01-04T07:51:39.622Z,22.40
2019-01-04T07:54:05.598Z,21.63
2019-01-04T07:56:31.596Z,18.53
2019-01-04T07:58:57.582Z,20.47
2019-01-04T08:01:23.580Z,18.53
2019-01-04T08:03:49.559Z,16.17
2019-01-04T08:06:15.563Z,18.17
2019-01-04T08:08:42.272Z,18.40
2019-01-04T08:11:08.276Z,17.20
2019-01-04T08:13:34.280Z,18.40
2019-01-04T08:16:00.280Z,20.02
2019-01-04T08:18:26.288Z,19.13
2019-01-04T08:20:52.278Z,20.60
2019-01-04T08:23:18.288Z,20.33
2019-01-04T08:25:44.274Z,20.88
2019-01-04T08:28:10.237Z,18.17
2019-01-04T08:30:36.226Z,19.83
2019-01-04T08:33:02.262Z,16.90
2019-01-04T08:35:28.235Z,18.40
2019-01-04T08:37:54.212Z,18.30
2019-01-04T08:40:20.195Z,21.13
2019-01-04T08:42:46.164Z,18.17
2019-01-04T08:45:12.144Z,19.17
2019-01-04T08:47:38.134Z,20.17
2019-01-04T08:50:04.144Z,18.00
2019-01-04T08:52:30.117Z,18.48
2019-01-04T08:54:56.117Z,18.53
2019-01-04T08:57:22.845Z,17.73
2019-01-04T08:59:48.854Z,18.23
2019-01-04T09:02:14.862Z,19.40
2019-01-04T09:04:40.868Z,17.83
2019-01-04T09:07:06.872Z,17.65
2019-01-04T09:09:34.124Z,19.80
2019-01-04T09:12:01.074Z,18.55
2019-01-04T09:14:27.190Z,17.70
2019-01-04T09:16:53.157Z,19.70
2019-01-04T09:19:19.108Z,19.10
2019-01-04T09:21:45.106Z,18.77
2019-01-04T09:24:11.073Z,20.65
2019-01-04T09:26:37.977Z,19.43
2019-01-04T09:29:03.978Z,17.40
2019-01-04T09:31:29.961Z,19.17
2019-01-04T09:33:57.142Z,18.30
2019-01-04T09:36:23.035Z,18.90
2019-01-04T09:38:48.990Z,18.97
2019-01-04T09:41:29.964Z,18.20
2019-01-04T09:43:55.914Z,17.60
2019-01-04T09:46:21.912Z,18.20
2019-01-04T09:48:47.899Z,19.30
2019-01-04T09:51:13.874Z,18.53
2019-01-04T09:53:39.910Z,19.07
2019-01-04T09:56:05.898Z,20.10
2019-01-04T09:58:31.847Z,19.97
2019-01-04T10:00:59.913Z,19.47
2019-01-04T10:03:24.647Z,19.63
2019-01-04T10:05:50.629Z,18.40
2019-01-04T10:08:16.627Z,18.80
2019-01-04T10:10:42.616Z,17.73
2019-01-04T10:13:08.607Z,18.17
2019-01-04T10:15:34.615Z,19.93
2019-01-04T10:18:00.674Z,17.70
2019-01-04T10:20:26.777Z,17.07
2019-01-04T10:22:52.775Z,20.03
2019-01-04T10:25:18.753Z,16.73
2019-01-04T10:27:44.755Z,19.03
2019-01-04T10:30:10.742Z,16.23
2019-01-04T10:32:37.545Z,15.40
2019-01-04T10:35:03.537Z,15.40
2019-01-04T10:37:29.545Z,13.33
2019-01-04T10:39:56.284Z,16.03
2019-01-04T10:42:22.314Z,17.23
2019-01-04T10:44:48.305Z,17.67
2019-01-04T10:47:14.298Z,17.47
2019-01-04T10:49:40.317Z,24.80
2019-01-04T10:52:06.332Z,25.00
2019-01-04T10:54:32.311Z,80.77
2019-01-04T10:56:58.309Z,61.10
2019-01-04T10:59:24.333Z,39.93
2019-01-04T11:01:50.325Z,25.77
2019-01-04T11:04:16.350Z,17.23
2019-01-04T11:06:42.363Z,14.23
2019-01-04T11:09:08.369Z,13.87
2019-01-04T11:11:35.033Z,13.90
2019-01-04T11:14:01.083Z,13.53
2019-01-04T11:16:27.104Z,14.00
2019-01-04T11:18:53.050Z,13.03
2019-01-04T11:21:19.075Z,12.60
2019-01-04T11:24:01.943Z,13.33
2019-01-04T11:26:29.853Z,13.10
2019-01-04T11:29:11.720Z,12.10
2019-01-04T11:31:48.680Z,13.83
2019-01-04T11:37:28.253Z,17.02
2019-01-04T11:40:00.221Z,15.20
2019-01-04T11:42:27.106Z,17.37
2019-01-04T11:44:55.673Z,15.20
2019-01-04T11:47:22.602Z,14.87
2019-01-04T11:49:51.438Z,14.50
2019-01-04T11:52:17.413Z,17.10
2019-01-04T11:54:43.404Z,16.60
2019-01-04T11:57:09.384Z,15.77
2019-01-04T11:59:35.367Z,18.80
2019-01-04T12:02:01.367Z,17.63
2019-01-04T12:04:27.339Z,18.50
2019-01-04T12:06:53.348Z,24.30
2019-01-04T12:09:19.309Z,20.40
2019-01-04T12:11:46.026Z,18.73
2019-01-04T12:14:12.066Z,19.00
2019-01-04T12:16:38.071Z,18.90
2019-01-04T12:19:04.026Z,17.93
2019-01-04T12:21:30.034Z,18.10
2019-01-04T12:23:56.037Z,17.87
2019-01-04T12:26:22.748Z,19.20
2019-01-04T12:28:48.734Z,18.20
2019-01-04T12:31:14.710Z,19.00
2019-01-04T12:33:40.680Z,18.40
2019-01-04T12:36:06.687Z,20.03
2019-01-04T12:38:32.663Z,17.70
2019-01-04T12:40:58.656Z,18.40
2019-01-04T12:43:24.635Z,19.20
2019-01-04T12:45:51.355Z,18.33
2019-01-04T12:48:17.363Z,20.20
2019-01-04T12:50:43.341Z,17.90
2019-01-04T12:53:09.302Z,19.60
2019-01-04T12:55:35.302Z,18.27
2019-01-04T12:58:01.286Z,17.30
2019-01-04T13:00:28.050Z,17.40
2019-01-04T13:02:54.037Z,17.23
2019-01-04T13:05:20.217Z,18.20
2019-01-04T13:07:47.356Z,19.33
2019-01-04T13:10:13.373Z,18.23
2019-01-04T13:12:39.359Z,16.67
2019-01-04T13:15:06.123Z,18.50
2019-01-04T13:17:32.145Z,17.03
2019-01-04T13:19:58.150Z,18.00
2019-01-04T13:22:24.147Z,17.80
2019-01-04T13:24:50.151Z,19.53
2019-01-04T13:27:16.211Z,18.20
2019-01-04T13:29:42.259Z,17.73
2019-01-04T13:32:08.257Z,17.63
2019-01-04T13:34:34.233Z,16.70
2019-01-04T13:37:00.206Z,19.53
2019-01-04T13:39:27.129Z,18.47
2019-01-04T13:41:53.086Z,19.80
2019-01-04T13:44:19.141Z,19.60
2019-01-04T13:46:45.117Z,21.30
2019-01-04T13:49:11.093Z,20.37
2019-01-04T13:51:37.073Z,20.23
2019-01-04T13:54:03.074Z,20.40
2019-01-04T13:56:29.780Z,18.90
2019-01-04T13:58:55.835Z,19.93
2019-01-04T14:01:21.955Z,17.13
2019-01-04T14:03:48.667Z,17.53
2019-01-04T14:06:14.759Z,16.93
2019-01-04T14:08:40.716Z,14.97
2019-01-04T14:11:06.691Z,14.83
2019-01-04T14:13:32.679Z,14.57
2019-01-04T14:15:58.675Z,16.10
2019-01-04T14:18:24.729Z,14.00
2019-01-04T14:20:51.448Z,13.07
2019-01-04T14:23:17.445Z,12.57
2019-01-04T14:25:43.450Z,10.90
2019-01-04T14:28:09.441Z,11.00
2019-01-04T14:30:35.431Z,11.77
2019-01-04T14:33:01.417Z,10.33
2019-01-04T14:35:27.401Z,11.30
2019-01-04T14:37:53.385Z,10.27
2019-01-04T14:40:19.368Z,11.10
2019-01-04T14:42:45.347Z,9.37
2019-01-04T14:45:11.330Z,9.80
2019-01-04T14:47:37.324Z,9.10
2019-01-04T14:50:03.358Z,7.57
2019-01-04T14:52:29.348Z,7.03
2019-01-04T14:54:55.338Z,7.23
2019-01-04T14:57:21.297Z,7.40
2019-01-04T14:59:48.007Z,6.20
2019-01-04T15:02:14.005Z,6.50
2019-01-04T15:04:40.964Z,6.10
2019-01-04T15:07:07.038Z,6.33
2019-01-04T15:09:33.107Z,6.27
2019-01-04T15:11:59.134Z,5.60
2019-01-04T15:14:25.204Z,5.93
2019-01-04T15:16:51.176Z,5.90
2019-01-04T15:19:17.200Z,5.67
2019-01-04T15:21:43.210Z,6.30
2019-01-04T15:24:09.274Z,8.20
2019-01-04T15:26:35.248Z,7.25
2019-01-04T15:29:01.302Z,8.70
2019-01-04T15:31:27.274Z,6.70
2019-01-04T15:33:53.286Z,5.77
2019-01-04T15:36:19.308Z,6.07
2019-01-04T15:38:46.026Z,6.07
2019-01-04T15:41:12.132Z,6.70
2019-01-04T15:43:38.133Z,10.20
2019-01-04T15:46:04.170Z,6.37
2019-01-04T15:48:30.153Z,6.93
2019-01-04T15:50:56.147Z,6.53
2019-01-04T15:53:22.238Z,6.70
2019-01-04T15:55:48.602Z,6.60
2019-01-04T15:58:14.606Z,6.20
2019-01-04T16:00:40.612Z,7.67
2019-01-04T16:03:06.583Z,6.40
2019-01-04T16:05:32.624Z,7.27
2019-01-04T16:07:59.654Z,6.17
2019-01-04T16:10:25.647Z,8.23
2019-01-04T16:12:51.629Z,7.27
2019-01-04T16:15:17.682Z,6.50
2019-01-04T16:17:43.658Z,7.33
2019-01-04T16:20:11.880Z,7.00
2019-01-04T16:22:37.883Z,7.10
2019-01-04T16:25:04.115Z,6.53
2019-01-04T16:27:30.146Z,6.30
2019-01-04T16:29:56.261Z,7.20
2019-01-04T16:32:22.253Z,6.67
2019-01-04T16:34:48.229Z,7.40
2019-01-04T16:37:14.209Z,7.77
2019-01-04T16:39:40.184Z,7.60
2019-01-04T16:42:06.217Z,8.50
2019-01-04T16:44:32.200Z,8.27
2019-01-04T16:46:58.178Z,7.83
2019-01-04T16:49:24.202Z,9.73
2019-01-04T16:51:50.672Z,10.60
2019-01-04T16:54:17.066Z,9.87
2019-01-04T16:56:43.354Z,9.20
2019-01-04T16:59:09.791Z,8.80
2019-01-04T17:01:35.841Z,9.80
2019-01-04T17:04:02.606Z,10.57
2019-01-04T17:06:28.646Z,9.37
2019-01-04T17:08:54.666Z,9.90
2019-01-04T17:11:20.657Z,10.33
2019-01-04T17:13:46.785Z,9.93
2019-01-04T17:16:12.766Z,9.83
2019-01-04T17:18:38.728Z,9.87
2019-01-04T17:21:04.728Z,11.97
2019-01-04T17:23:30.743Z,10.93
2019-01-04T17:25:56.724Z,10.60
2019-01-04T17:28:22.753Z,12.80
2019-01-04T17:30:48.761Z,9.80
2019-01-04T17:33:14.760Z,10.60
2019-01-04T17:35:40.738Z,11.83
2019-01-04T17:38:06.731Z,11.87
2019-01-04T17:40:32.755Z,12.10
2019-01-04T17:42:58.792Z,12.80
2019-01-04T17:45:25.819Z,11.30
2019-01-04T17:47:51.791Z,14.03
2019-01-04T17:50:17.946Z,12.70
2019-01-04T17:52:43.936Z,13.17
2019-01-04T17:55:09.923Z,13.50
2019-01-04T17:57:35.904Z,14.90
2019-01-04T18:00:01.904Z,13.90
2019-01-04T18:02:28.636Z,14.17
2019-01-04T18:04:54.646Z,14.90
2019-01-04T18:07:20.622Z,14.30
2019-01-04T18:09:46.727Z,14.90
2019-01-04T18:12:12.676Z,15.77
2019-01-04T18:14:38.625Z,15.70
2019-01-04T18:17:04.613Z,16.40
2019-01-04T18:19:30.606Z,14.63
2019-01-04T18:21:56.621Z,15.60
2019-01-04T18:24:22.606Z,15.30
2019-01-04T18:26:48.656Z,15.60
2019-01-04T18:29:14.661Z,14.40
2019-01-04T18:31:40.652Z,14.93
2019-01-04T18:34:06.650Z,15.93
2019-01-04T18:36:32.725Z,16.53
2019-01-04T18:38:58.722Z,18.20
2019-01-04T18:41:24.705Z,15.23
2019-01-04T18:43:50.681Z,17.33
2019-01-04T18:46:16.642Z,17.87
2019-01-04T18:48:42.619Z,16.30
2019-01-04T18:51:09.180Z,17.00
2019-01-04T18:53:35.185Z,18.37
2019-01-04T18:56:01.149Z,17.47
2019-01-04T18:58:27.237Z,15.07
2019-01-04T19:00:53.217Z,17.50
2019-01-04T19:03:19.236Z,18.37
2019-01-04T19:05:45.334Z,16.90
2019-01-04T19:08:12.142Z,16.77
2019-01-04T19:10:38.128Z,17.80
2019-01-04T19:13:04.171Z,16.80
2019-01-04T19:15:30.202Z,17.40
2019-01-04T19:17:56.192Z,17.33
2019-01-04T19:20:22.315Z,18.10
2019-01-04T19:22:48.323Z,17.13
2019-01-04T19:25:14.337Z,16.77
2019-01-04T19:27:40.309Z,17.40
2019-01-04T19:30:06.306Z,16.50
2019-01-04T19:32:32.378Z,18.30
2019-01-04T19:34:58.358Z,18.30
2019-01-04T19:37:24.346Z,19.20
2019-01-04T19:39:50.350Z,18.13
2019-01-04T19:42:16.325Z,18.33
2019-01-04T19:44:42.357Z,19.83
2019-01-04T19:47:08.470Z,19.43
2019-01-04T19:49:34.455Z,20.30
2019-01-04T19:52:01.178Z,18.73
2019-01-04T19:54:27.194Z,19.70
2019-01-04T19:56:53.246Z,19.65
2019-01-04T19:59:19.226Z,19.85
2019-01-04T20:01:45.219Z,18.27
2019-01-04T20:04:11.423Z,20.47
2019-01-04T20:06:38.180Z,20.80
2019-01-04T20:09:16.521Z,19.77
2019-01-04T20:15:00.497Z,24.25
2019-01-04T20:17:41.527Z,21.33
2019-01-04T20:20:12.489Z,20.48
2019-01-04T20:22:43.200Z,19.53
2019-01-04T20:25:11.993Z,21.43
2019-01-04T20:27:38.746Z,22.20
2019-01-04T20:30:07.511Z,21.13
2019-01-04T20:32:39.453Z,20.33
2019-01-04T20:35:15.418Z,23.33
2019-01-04T20:37:42.225Z,22.10
2019-01-04T20:40:29.277Z,22.70
2019-01-04T20:43:06.818Z,24.20
2019-01-04T20:45:34.670Z,22.50
2019-01-04T20:48:00.669Z,22.93
2019-01-04T20:50:32.590Z,22.60
2019-01-04T20:53:18.448Z,22.10
2019-01-04T20:55:47.306Z,23.35
2019-01-04T20:58:14.210Z,24.75
2019-01-04T21:00:59.958Z,22.10
2019-01-04T21:03:41.122Z,23.93
2019-01-04T21:06:13.177Z,24.10
2019-01-04T21:08:42.997Z,24.30
2019-01-04T21:11:09.058Z,23.57
2019-01-04T21:13:41.881Z,23.73
2019-01-04T21:16:10.670Z,23.23
2019-01-04T21:18:40.506Z,25.20
2019-01-04T21:21:07.284Z,27.37
2019-01-04T21:23:44.282Z,28.57
2019-01-04T21:26:11.133Z,23.47
2019-01-04T21:28:41.853Z,24.37
2019-01-04T21:31:28.747Z,24.10
2019-01-04T21:33:56.566Z,25.57
2019-01-04T21:36:37.597Z,26.53
2019-01-04T21:39:13.571Z,27.20
2019-01-04T21:41:40.419Z,27.20
2019-01-04T21:44:13.349Z,26.67
2019-01-04T21:46:45.613Z,27.93
2019-01-04T21:49:28.369Z,27.10
2019-01-04T21:52:10.105Z,26.87
2019-01-04T21:54:38.907Z,26.00
2019-01-04T21:57:11.978Z,26.17
2019-01-04T21:59:43.936Z,24.80
2019-01-04T22:02:15.925Z,25.33
2019-01-04T22:04:45.746Z,24.20
2019-01-04T22:07:11.751Z,27.30
2019-01-04T22:09:40.743Z,26.40
2019-01-04T22:12:10.626Z,25.27
2019-01-04T22:14:43.394Z,25.77
2019-01-04T22:17:16.320Z,27.07
2019-01-04T22:19:44.391Z,24.85
2019-01-04T22:22:15.179Z,27.37
2019-01-04T22:24:56.914Z,25.70
2019-01-04T22:27:23.762Z,23.93
2019-01-04T22:29:56.589Z,26.30
2019-01-04T22:32:29.342Z,25.77
2019-01-04T22:34:56.131Z,25.63
2019-01-04T22:37:25.067Z,25.43
2019-01-04T22:39:57.041Z,25.53
2019-01-04T22:42:28.934Z,26.33
2019-01-04T22:44:59.443Z,25.63
2019-01-04T22:47:27.420Z,26.97
2019-01-04T22:49:55.161Z,25.93
2019-01-04T22:52:27.051Z,24.80
2019-01-04T22:54:54.776Z,24.03
2019-01-04T22:57:20.813Z,25.13
2019-01-04T22:59:47.583Z,23.63
2019-01-04T23:02:14.372Z,24.67
2019-01-04T23:04:41.436Z,23.27
2019-01-04T23:07:13.706Z,23.97
2019-01-04T23:09:55.455Z,23.53
2019-01-04T23:12:27.286Z,20.67
2019-01-04T23:15:00.161Z,23.50
2019-01-04T23:17:39.946Z,22.23
2019-01-04T23:20:10.775Z,22.40
2019-01-04T23:22:54.601Z,20.87
2019-01-04T23:25:26.655Z,20.30
2019-01-04T23:27:58.152Z,19.67
2019-01-04T23:30:35.019Z,20.70
2019-01-04T23:33:20.574Z,21.50
2019-01-04T23:35:51.585Z,20.80
2019-01-04T23:38:20.202Z,19.67
2019-01-04T23:40:50.970Z,18.50
2019-01-04T23:43:22.064Z,20.20
2019-01-04T23:45:48.807Z,21.00
2019-01-04T23:48:16.604Z,20.00
2019-01-04T23:50:45.452Z,24.10
2019-01-04T23:53:30.423Z,23.97
2019-01-04T23:56:02.377Z,23.03
2019-01-04T23:58:31.164Z,23.80
